Aviation Digital Data Service (ADDS)

Output produced by TAFs form (0746 UTC 29 May 2017)
found at http://www.aviationweather.gov/adds/tafs/
 
METAR text: ZSOF 290700Z 16003MPS 120V200 CAVOK 34/14 Q1007 NOSIG
Conditions at: ZSOF (HEFEI/XINGIAO , CN) observed 0700 UTC 29 May 2017
Temperature: 34.0°C (93°F)
Dewpoint: 14.0°C (57°F) [RH = 30%]
Pressure (altimeter): 29.73 inches Hg (1007.0 mb)
Winds: from the SSE (160 degrees) at 7 MPH (6 knots; 3.1 m/s)
Visibility: 6 or more miles (10+ km)
Ceiling: ceiling and visibility are OK
Clouds: unknown
Weather: no significant weather observed at this time

Forecast for: ZSOF (HEFEI/XINGIAO , CN)
Text: TAF ZSOF 290301Z 2906/3006 15003MPS 5000 HZ NSC TX34/2906Z TN21/2921Z
Forecast period: 0600 UTC 29 May 2017 to 0600 UTC 30 May 2017
Forecast type: FROM: standard forecast or significant change
Winds: from the SSE (150 degrees) at 7 MPH (6 knots; 3.1 m/s)
Visibility: 3 miles (5 km)
Clouds: not forecast
Weather: HZ  (haze)